To NAV CANADA Home Page Login to a new session Search on AWWS site Feedback and Comments Disclaimer Vers la page française équivalente Tips FAQ What's new on the site To the Forecasts and Observations / NOTAM section To "File a Flight Plan" website Publications and other links Update of the User's profile FIC Telephone Numbers My Weather Data Folder Route Weather Data Regional Weather Data Local Weather Data To the Forecasts and Observations / NOTAM section
Request Generated 05/27/2015 at 09:25:54 UTC . Weather information available at that time is displayed.

METAR/TAF

CHURCHILL/MB    (show WxCam)

METAR CYYQ 270900Z 34014G21KT 15SM FEW010 BKN043 00/M01 A3000 RMK
SC2SC4 SLP160=
SPECI CYYQ 270807Z 27007KT 15SM FEW015 BKN060 BKN089 M00/M03 A2999
RMK SC1SC4AC1 SLP158=
METAR CYYQ 270800Z 26009KT 15SM -SN BKN060 BKN095 M00/M03 A2999 RMK
SC5AC1 SLP157=
METAR CYYQ 270700Z 21010KT 15SM -SN BKN055 BKN090 M01/M03 A2998 RMK
SC6AC1 SLP153=

TAF CYYQ 270538Z 2706/2806 16007KT P6SM FEW050 SCT080
FM271000 34010KT P6SM BKN060
BECMG 2714/2716 03012KT
RMK NXT FCST BY 271200Z=
Your time UTC time
Weather data provided by Environment Canada and NAV CANADA